Time;durP1;ratioP1;P1;durP2;ratioP2;P2;SDS_P1;SDS_P2;PMS_P1;PMS_P2;Temp;Humidity;BMP_temperature;BMP_pressure;BME280_temperature;BME280_humidity;BME280_pressure;Samples;Min_cycle;Max_cycle;Signal;HPM_P1;HPM_P2
2021/07/02 00:08:40;;;;;;;;;;;;;;;15.75;67.14;99129.80;531320;1090;102918;-63
2021/07/02 00:18:45;;;;;;;;;;;;;;;15.58;67.83;99132.22;531329;1090;102734;-62
2021/07/02 00:28:50;;;;;;;;;;;;;;;15.54;68.38;99141.43;531138;1090;102432;-62
2021/07/02 00:38:55;;;;;;;;;;;;;;;15.46;68.52;99123.59;530702;1089;102867;-62
2021/07/02 00:49:00;;;;;;;;;;;;;;;15.37;68.84;99135.05;531340;1090;101911;-62
2021/07/02 00:59:05;;;;;;;;;;;;;;;15.32;69.29;99124.88;531392;1092;102021;-62
2021/07/02 01:09:10;;;;;;;;;;;;;;;15.22;69.67;99118.76;530662;1093;102117;-63
2021/07/02 01:19:15;;;;;;;;;;;;;;;15.21;69.76;99115.27;531349;1092;102544;-63
2021/07/02 01:29:21;;;;;;;;;;;;;;;15.27;69.60;99116.52;531366;1091;103723;-62
2021/07/02 01:39:25;;;;;;;;;;;;;;;15.27;69.76;99122.66;530702;1090;102899;-63
2021/07/02 01:49:30;;;;;;;;;;;;;;;15.31;69.62;99117.92;531363;1090;102519;-62
2021/07/02 01:59:35;;;;;;;;;;;;;;;15.30;69.65;99113.61;531373;1093;102397;-63
2021/07/02 02:09:40;;;;;;;;;;;;;;;15.27;69.95;99135.88;530684;1091;101199;-63
2021/07/02 02:19:45;;;;;;;;;;;;;;;15.40;70.05;99137.40;531400;1090;102865;-62
2021/07/02 02:29:49;;;;;;;;;;;;;;;15.33;69.92;99138.92;530746;1090;102453;-66
2021/07/02 02:39:55;;;;;;;;;;;;;;;15.32;70.02;99146.04;531408;1088;102561;-62
2021/07/02 02:49:59;;;;;;;;;;;;;;;15.28;70.45;99147.27;531382;1090;101824;-62
2021/07/02 03:00:06;;;;;;;;;;;;;;;15.31;70.42;99147.02;530710;1092;103286;-62
2021/07/02 03:10:11;;;;;;;;;;;;;;;15.36;70.27;99160.64;531422;1090;101809;-61
2021/07/02 03:20:16;;;;;;;;;;;;;;;15.50;70.43;99154.10;531349;1093;103017;-63
2021/07/02 03:30:21;;;;;;;;;;;;;;;15.51;70.26;99153.13;530668;1090;102792;-62
2021/07/02 03:40:26;;;;;;;;;;;;;;;15.76;70.15;99150.84;531389;1092;102650;-62
2021/07/02 03:50:30;;;;;;;;;;;;;;;15.96;69.54;99141.06;531316;1090;102714;-62
2021/07/02 04:00:35;;;;;;;;;;;;;;;16.23;69.19;99143.89;530672;1090;103091;-63
2021/07/02 04:10:40;;;;;;;;;;;;;;;16.27;68.89;99153.20;531382;1090;102503;-63
2021/07/02 04:20:45;;;;;;;;;;;;;;;16.52;68.52;99162.30;530655;1090;102270;-62
2021/07/02 04:30:50;;;;;;;;;;;;;;;17.58;67.84;99149.41;531346;1089;102930;-62
2021/07/02 04:40:54;;;;;;;;;;;;;;;19.08;64.80;99147.44;531317;1092;102966;-62
2021/07/02 04:50:59;;;;;;;;;;;;;;;18.68;63.86;99150.67;530715;1092;103509;-63
2021/07/02 05:01:04;;;;;;;;;;;;;;;18.48;64.18;99160.75;531301;1092;102939;-63
2021/07/02 05:11:10;;;;;;;;;;;;;;;18.82;63.60;99151.88;531387;1089;102906;-63
2021/07/02 05:21:15;;;;;;;;;;;;;;;18.85;63.33;99148.03;530718;1090;103040;-62
2021/07/02 05:31:20;;;;;;;;;;;;;;;18.53;63.30;99166.40;531347;1088;102282;-61
2021/07/02 05:41:24;;;;;;;;;;;;;;;19.86;60.94;99172.72;531414;1090;102874;-62
2021/07/02 05:51:29;;;;;;;;;;;;;;;19.30;61.14;99183.23;530674;1088;103988;-62
2021/07/02 06:01:34;;;;;;;;;;;;;;;20.05;61.47;99173.39;531438;1089;103479;-63
2021/07/02 06:11:39;;;;;;;;;;;;;;;24.25;55.31;99185.33;531358;1092;101409;-62
2021/07/02 06:21:44;;;;;;;;;;;;;;;25.16;52.78;99194.16;531346;1090;102823;-61
2021/07/02 06:31:49;;;;;;;;;;;;;;;24.25;52.17;99197.92;531378;1090;102645;-62
2021/07/02 06:42:00;;;;;;;;;;;;;;;22.40;53.12;99195.47;530678;1090;102442;-61
2021/07/02 06:52:07;;;;;;;;;;;;;;;23.04;52.24;99190.48;531396;1092;102792;-63
2021/07/02 07:02:13;;;;;;;;;;;;;;;22.16;53.18;99188.55;531413;1090;101862;-63
2021/07/02 07:12:17;;;;;;;;;;;;;;;22.26;52.85;99186.44;530742;1090;102628;-62
2021/07/02 07:22:22;;;;;;;;;;;;;;;22.14;53.78;99176.41;531384;1090;102993;-62
2021/07/02 07:32:27;;;;;;;;;;;;;;;21.75;52.27;99163.08;531383;1090;102939;-62
2021/07/02 07:42:32;;;;;;;;;;;;;;;21.30;53.72;99178.13;530800;1090;102544;-62
2021/07/02 07:52:45;;;;;;;;;;;;;;;20.96;53.37;99172.19;531341;1090;103114;-63
2021/07/02 08:02:52;;;;;;;;;;;;;;;20.66;54.15;99167.48;530553;1092;103185;-62
2021/07/02 08:12:57;;;;;;;;;;;;;;;20.53;54.48;99164.56;531421;1090;103399;-62
2021/07/02 08:23:02;;;;;;;;;;;;;;;20.64;54.63;99174.84;531320;1090;102606;-62
2021/07/02 08:33:07;;;;;;;;;;;;;;;20.70;54.81;99179.45;530728;1090;102373;-62
2021/07/02 08:43:12;;;;;;;;;;;;;;;20.24;54.95;99176.65;531354;1090;103499;-62
2021/07/02 08:53:17;;;;;;;;;;;;;;;20.67;55.04;99179.00;531396;1090;102752;-62
2021/07/02 09:03:29;;;;;;;;;;;;;;;21.51;53.78;99188.97;530706;1090;102780;-62
2021/07/02 09:13:41;;;;;;;;;;;;;;;21.55;52.88;99189.45;531346;1090;103244;-62
2021/07/02 09:23:46;;;;;;;;;;;;;;;22.07;52.67;99182.47;530755;1090;102281;-62
2021/07/02 09:33:56;;;;;;;;;;;;;;;21.52;53.03;99182.61;531361;1090;102794;-62
2021/07/02 09:44:11;;;;;;;;;;;;;;;21.75;52.53;99189.80;531323;1090;102816;-62
2021/07/02 09:54:16;;;;;;;;;;;;;;;22.31;51.95;99185.88;530738;1089;102438;-63
2021/07/02 10:04:21;;;;;;;;;;;;;;;22.70;50.78;99189.28;531430;1088;103031;-63
2021/07/02 10:14:26;;;;;;;;;;;;;;;21.62;52.21;99193.07;531378;1090;104796;-62
2021/07/02 10:24:31;;;;;;;;;;;;;;;20.84;53.68;99198.45;530723;1090;102769;-62
2021/07/02 10:34:38;;;;;;;;;;;;;;;21.31;54.44;99203.84;531362;1089;102707;-62
2021/07/02 10:45:01;;;;;;;;;;;;;;;21.38;54.06;99218.13;530968;1093;102960;-61
2021/07/02 10:55:07;;;;;;;;;;;;;;;20.98;54.90;99208.38;531327;1091;101870;-62
2021/07/02 11:05:29;;;;;;;;;;;;;;;21.43;54.67;99215.77;520020;1090;103111;-62
2021/07/02 11:15:34;;;;;;;;;;;;;;;21.02;55.54;99226.70;530473;1090;103585;-63
2021/07/02 11:25:44;;;;;;;;;;;;;;;21.00;55.36;99229.53;531301;1090;102751;-62
2021/07/02 11:36:06;;;;;;;;;;;;;;;20.74;55.77;99227.16;530692;1092;102345;-62
2021/07/02 11:46:12;;;;;;;;;;;;;;;21.28;55.19;99215.70;531372;1092;102709;-62
2021/07/02 11:56:18;;;;;;;;;;;;;;;21.33;55.90;99215.98;531380;1090;102625;-63
2021/07/02 12:06:25;;;;;;;;;;;;;;;22.26;54.41;99215.03;530764;1090;102707;-62
2021/07/02 12:16:34;;;;;;;;;;;;;;;23.11;52.81;99217.33;531307;1092;103228;-62
2021/07/02 12:26:39;;;;;;;;;;;;;;;23.37;52.41;99208.78;531341;1091;152294;-62
2021/07/02 12:36:58;;;;;;;;;;;;;;;23.63;51.85;99201.17;530513;1090;102842;-62
2021/07/02 12:47:05;;;;;;;;;;;;;;;24.24;50.30;99185.52;528506;1092;101839;-62
2021/07/02 12:57:15;;;;;;;;;;;;;;;24.46;49.02;99187.08;530720;1091;103259;-63
2021/07/02 13:07:20;;;;;;;;;;;;;;;23.88;49.71;99185.47;531342;1090;102627;-62
2021/07/02 13:27:56;;;;;;;;;;;;;;;23.13;50.35;99191.19;527363;1092;64343;-63
2021/07/02 13:38:06;;;;;;;;;;;;;;;23.36;49.81;99183.02;530198;1092;101577;-62
2021/07/02 13:48:12;;;;;;;;;;;;;;;23.76;49.04;99184.35;529552;1092;101943;-62
2021/07/02 13:58:17;;;;;;;;;;;;;;;23.99;49.29;99186.80;530214;1092;102765;-63
2021/07/02 14:08:22;;;;;;;;;;;;;;;23.70;48.59;99169.07;530146;1093;102046;-63
2021/07/02 14:18:27;;;;;;;;;;;;;;;24.06;49.03;99157.38;529556;1093;102636;-62
2021/07/02 14:28:32;;;;;;;;;;;;;;;24.39;47.84;99156.72;530147;1094;101930;-63
2021/07/02 14:38:36;;;;;;;;;;;;;;;24.21;48.11;99151.89;530208;1092;102452;-62
2021/07/02 14:48:41;;;;;;;;;;;;;;;23.76;47.97;99147.67;529532;1092;101948;-61
2021/07/02 14:58:46;;;;;;;;;;;;;;;23.73;49.04;99142.71;530120;1094;101903;-62
2021/07/02 15:08:51;;;;;;;;;;;;;;;23.72;48.26;99138.38;528556;1094;101670;-63
2021/07/02 15:18:56;;;;;;;;;;;;;;;22.86;49.39;99149.95;530096;1094;102850;-63
2021/07/02 15:29:00;;;;;;;;;;;;;;;22.29;50.67;99153.16;530118;1094;103159;-63
2021/07/02 15:39:05;;;;;;;;;;;;;;;21.97;51.34;99161.37;529465;1094;101533;-63
2021/07/02 15:49:11;;;;;;;;;;;;;;;22.15;51.75;99149.47;530071;1094;102462;-63
2021/07/02 15:59:16;;;;;;;;;;;;;;;22.35;51.36;99157.77;530100;1095;102082;-63
2021/07/02 16:09:21;;;;;;;;;;;;;;;21.91;51.90;99156.74;529409;1095;102758;-62
2021/07/02 16:19:25;;;;;;;;;;;;;;;21.64;52.52;99152.80;530099;1094;103015;-63
2021/07/02 16:29:30;;;;;;;;;;;;;;;21.67;52.82;99157.83;530061;1094;102308;-63
2021/07/02 16:39:35;;;;;;;;;;;;;;;22.05;52.43;99157.77;529441;1094;102230;-62
2021/07/02 16:49:40;;;;;;;;;;;;;;;22.02;52.42;99157.30;530042;1094;102418;-62
2021/07/02 16:59:45;;;;;;;;;;;;;;;21.94;52.94;99151.05;529455;1094;104186;-62
2021/07/02 17:09:49;;;;;;;;;;;;;;;21.91;53.14;99164.76;530082;1094;103109;-61
2021/07/02 17:19:54;;;;;;;;;;;;;;;21.61;53.56;99170.04;530179;1094;103018;-63
2021/07/02 17:29:59;;;;;;;;;;;;;;;21.32;54.11;99170.78;529450;1094;102869;-63
2021/07/02 17:40:04;;;;;;;;;;;;;;;21.14;54.34;99164.73;530131;1095;102807;-62
2021/07/02 17:50:11;;;;;;;;;;;;;;;20.93;54.99;99168.02;530123;1094;102072;-62
2021/07/02 18:00:16;;;;;;;;;;;;;;;21.29;54.64;99166.63;529449;1094;102596;-62
2021/07/02 18:10:21;;;;;;;;;;;;;;;20.82;55.29;99160.42;530129;1095;103036;-63
2021/07/02 18:20:26;;;;;;;;;;;;;;;20.51;56.05;99169.23;530120;1094;104799;-63
2021/07/02 18:30:31;;;;;;;;;;;;;;;20.12;57.22;99168.20;529465;1094;102873;-63
2021/07/02 18:40:36;;;;;;;;;;;;;;;19.62;58.01;99170.09;530116;1095;103487;-62
2021/07/02 18:50:43;;;;;;;;;;;;;;;19.16;59.11;99163.42;530125;1094;101728;-62
2021/07/02 19:00:48;;;;;;;;;;;;;;;18.81;60.29;99166.14;530080;1095;102719;-62
2021/07/02 19:10:53;;;;;;;;;;;;;;;18.39;61.24;99172.33;530035;1094;101812;-62
2021/07/02 19:20:58;;;;;;;;;;;;;;;18.10;62.28;99181.47;529476;1094;102878;-63
2021/07/02 19:31:04;;;;;;;;;;;;;;;18.08;62.94;99178.99;530115;1094;102320;-62
2021/07/02 19:41:09;;;;;;;;;;;;;;;18.31;63.15;99183.77;530129;1094;102794;-61
2021/07/02 19:51:15;;;;;;;;;;;;;;;18.51;63.21;99202.11;529466;1094;102794;-63
2021/07/02 20:01:20;;;;;;;;;;;;;;;18.53;63.64;99197.48;530066;1094;102423;-62
2021/07/02 20:11:25;;;;;;;;;;;;;;;18.37;64.19;99192.92;530065;1094;102035;-62
2021/07/02 20:21:30;;;;;;;;;;;;;;;18.25;65.05;99177.26;529443;1094;102170;-64
2021/07/02 20:31:35;;;;;;;;;;;;;;;18.06;66.00;99165.01;530123;1093;102797;-62
2021/07/02 20:41:41;;;;;;;;;;;;;;;17.95;66.88;99173.21;530162;1095;102313;-62
2021/07/02 20:51:45;;;;;;;;;;;;;;;17.83;67.53;99170.81;530062;1095;102363;-61
2021/07/02 21:01:50;;;;;;;;;;;;;;;17.50;68.85;99166.11;530126;1094;101870;-63
2021/07/02 21:11:55;;;;;;;;;;;;;;;17.19;69.65;99160.38;529449;1094;103109;-62
2021/07/02 21:22:01;;;;;;;;;;;;;;;17.01;70.19;99166.50;530037;1094;104071;-62
2021/07/02 21:32:06;;;;;;;;;;;;;;;16.84;70.84;99178.72;530130;1094;102561;-62
2021/07/02 21:42:11;;;;;;;;;;;;;;;16.69;71.15;99183.72;529419;1094;101870;-63
2021/07/02 21:52:16;;;;;;;;;;;;;;;16.66;71.65;99189.30;530113;1094;103100;-62
2021/07/02 22:02:21;;;;;;;;;;;;;;;16.66;72.26;99200.74;530096;1094;102318;-62
2021/07/02 22:12:25;;;;;;;;;;;;;;;16.88;72.31;99197.83;529518;1093;102504;-62
2021/07/02 22:22:30;;;;;;;;;;;;;;;17.08;72.19;99206.52;530157;1092;102545;-61
2021/07/02 22:32:35;;;;;;;;;;;;;;;17.22;71.74;99200.70;530149;1093;102702;-63
2021/07/02 22:42:41;;;;;;;;;;;;;;;17.31;72.05;99204.27;529561;1092;103409;-62
2021/07/02 22:52:46;;;;;;;;;;;;;;;17.30;72.06;99212.36;530128;1093;102845;-62
2021/07/02 23:02:51;;;;;;;;;;;;;;;17.25;71.95;99193.43;529504;1092;101836;-62
2021/07/02 23:12:56;;;;;;;;;;;;;;;17.26;72.12;99180.02;530110;1093;102275;-63
2021/07/02 23:23:01;;;;;;;;;;;;;;;17.06;72.18;99190.77;530099;1093;102959;-62
2021/07/02 23:33:06;;;;;;;;;;;;;;;17.18;72.45;99183.41;529530;1093;102160;-62
2021/07/02 23:43:11;;;;;;;;;;;;;;;17.24;72.83;99171.36;530186;1092;102745;-62
2021/07/02 23:53:16;;;;;;;;;;;;;;;17.21;72.96;99177.82;530179;1092;102357;-62
